Time;durP1;ratioP1;P1;durP2;ratioP2;P2;SDS_P1;SDS_P2;PMS_P1;PMS_P2;Temp;Humidity;BMP_temperature;BMP_pressure;BME280_temperature;BME280_humidity;BME280_pressure;Samples;Min_cycle;Max_cycle;Signal;HPM_P1;HPM_P2
2022/10/04 00:00:24;;;;;;;12.20;7.93;;;15.80;99.90;;;;;;5071076;28;20165;-58
2022/10/04 00:02:51;;;;;;;14.10;7.22;;;15.70;99.90;;;;;;5072550;28;20260;-58
2022/10/04 00:05:21;;;;;;;13.40;8.05;;;15.70;99.90;;;;;;5071364;28;20180;-58
2022/10/04 00:07:54;;;;;;;9.60;3.20;;;15.70;99.90;;;;;;5072072;28;20431;-57
2022/10/04 00:10:32;;;;;;;6.47;3.00;;;15.70;99.90;;;;;;5071254;28;20260;-58
2022/10/04 00:13:02;;;;;;;5.53;3.00;;;15.70;99.90;;;;;;5072479;28;20224;-58
2022/10/04 00:15:33;;;;;;;8.70;3.35;;;15.70;99.90;;;;;;5072637;28;20183;-58
2022/10/04 00:18:11;;;;;;;5.88;2.50;;;15.70;99.90;;;;;;5068750;28;20204;-58
2022/10/04 00:20:54;;;;;;;13.38;6.60;;;15.70;99.90;;;;;;5061414;28;20176;-58
2022/10/04 00:23:23;;;;;;;9.32;4.57;;;15.70;99.90;;;;;;5072803;28;20165;-58
2022/10/04 00:26:07;;;;;;;9.48;3.45;;;15.70;99.90;;;;;;5070838;28;20220;-58
2022/10/04 00:28:36;;;;;;;8.02;2.53;;;15.70;99.90;;;;;;5072084;28;20187;-58
2022/10/04 00:31:11;;;;;;;9.30;3.83;;;15.70;99.90;;;;;;5070272;28;20396;-58
2022/10/04 00:33:44;;;;;;;4.53;2.90;;;15.70;99.90;;;;;;5065389;28;20230;-57
2022/10/04 00:36:24;;;;;;;8.05;3.83;;;15.70;99.90;;;;;;5056122;28;20252;-58
2022/10/04 00:39:08;;;;;;;8.20;4.93;;;15.70;99.90;;;;;;5069518;28;20234;-57
2022/10/04 00:41:46;;;;;;;7.93;3.03;;;15.60;99.90;;;;;;5065862;28;20184;-59
2022/10/04 00:44:28;;;;;;;5.28;3.55;;;15.70;99.90;;;;;;5070135;28;20176;-58
2022/10/04 00:46:57;;;;;;;7.63;2.72;;;15.60;99.90;;;;;;5061271;28;20208;-58
2022/10/04 00:49:28;;;;;;;6.18;2.92;;;15.60;99.90;;;;;;5070356;28;20172;-58
2022/10/04 00:52:06;;;;;;;5.93;2.90;;;15.60;99.90;;;;;;5071509;28;20187;-58
2022/10/04 00:54:40;;;;;;;10.13;7.65;;;15.50;99.90;;;;;;5072213;28;20179;-58
2022/10/04 00:57:11;;;;;;;9.70;5.47;;;15.50;99.90;;;;;;5051342;28;20401;-58
2022/10/04 00:59:47;;;;;;;8.63;4.25;;;15.70;99.90;;;;;;5054563;28;20443;-58
2022/10/04 01:02:17;;;;;;;7.90;5.15;;;15.50;99.90;;;;;;5071654;28;20179;-58
2022/10/04 01:04:47;;;;;;;7.78;4.10;;;15.50;99.90;;;;;;5062993;28;20169;-58
2022/10/04 01:07:16;;;;;;;6.65;3.20;;;15.50;99.90;;;;;;5051686;28;20687;-59
2022/10/04 01:09:53;;;;;;;8.98;3.10;;;15.50;99.90;;;;;;5070659;28;20183;-58
2022/10/04 01:12:42;;;;;;;5.88;2.90;;;15.50;99.90;;;;;;5069404;28;20721;-58
2022/10/04 01:15:28;;;;;;;7.93;3.88;;;15.50;99.90;;;;;;5055800;28;20177;-58
2022/10/04 01:18:26;;;;;;;8.75;3.33;;;15.50;99.90;;;;;;5068542;28;20215;-58
2022/10/04 01:21:17;;;;;;;7.43;2.92;;;15.50;99.90;;;;;;5057276;28;20177;-58
2022/10/04 01:23:52;;;;;;;9.60;5.05;;;15.40;99.90;;;;;;5065077;28;20915;-58
2022/10/04 01:26:30;;;;;;;6.43;2.83;;;15.40;99.90;;;;;;5051472;28;20223;-58
2022/10/04 01:28:59;;;;;;;7.45;2.53;;;15.30;99.90;;;;;;5051693;28;20196;-58
2022/10/04 01:31:26;;;;;;;6.53;2.80;;;15.30;99.90;;;;;;5051272;28;20188;-58
2022/10/04 01:33:53;;;;;;;6.68;2.90;;;15.40;99.90;;;;;;5066834;28;20404;-58
2022/10/04 01:36:19;;;;;;;5.10;2.83;;;15.40;99.90;;;;;;5071283;28;20207;-58
2022/10/04 01:38:45;;;;;;;7.32;2.35;;;15.40;99.90;;;;;;5069595;28;20173;-58
2022/10/04 01:41:13;;;;;;;5.22;2.08;;;15.40;99.90;;;;;;5070758;28;20181;-58
2022/10/04 01:43:41;;;;;;;3.85;2.13;;;15.40;99.90;;;;;;5066276;28;20268;-58
2022/10/04 01:46:15;;;;;;;4.45;2.42;;;15.40;99.90;;;;;;5068205;28;20208;-59
2022/10/04 01:48:43;;;;;;;4.10;2.70;;;15.40;99.90;;;;;;5062362;28;20207;-58
2022/10/04 01:51:29;;;;;;;7.25;2.53;;;15.40;99.90;;;;;;5070412;28;20175;-58
2022/10/04 01:54:06;;;;;;;5.35;2.75;;;15.50;99.90;;;;;;5069799;28;20181;-58
2022/10/04 01:56:42;;;;;;;7.03;2.58;;;15.50;99.90;;;;;;5069556;28;20411;-58
2022/10/04 01:59:19;;;;;;;5.35;2.20;;;15.50;99.90;;;;;;5070623;28;20176;-58
2022/10/04 02:02:20;;;;;;;4.15;2.13;;;15.40;99.90;;;;;;5070610;28;20176;-58
2022/10/04 02:04:52;;;;;;;6.10;2.50;;;15.40;99.90;;;;;;5061980;28;20168;-59
2022/10/04 02:07:18;;;;;;;7.50;2.25;;;15.40;99.90;;;;;;5054883;28;20208;-58
2022/10/04 02:09:47;;;;;;;8.85;2.80;;;15.40;99.90;;;;;;5070166;28;20185;-58
2022/10/04 02:12:18;;;;;;;4.13;2.20;;;15.40;99.90;;;;;;5067833;28;20868;-58
2022/10/04 02:14:51;;;;;;;8.55;2.63;;;15.10;99.90;;;;;;5063811;28;20259;-58
2022/10/04 02:17:26;;;;;;;3.95;2.13;;;15.40;99.90;;;;;;5069701;28;20172;-57
2022/10/04 02:19:52;;;;;;;5.22;2.10;;;15.40;99.90;;;;;;5050784;28;20205;-58
2022/10/04 02:22:19;;;;;;;2.85;2.05;;;15.30;99.90;;;;;;5057842;28;20675;-58
2022/10/04 02:24:46;;;;;;;5.22;2.00;;;15.30;99.90;;;;;;5057914;28;20272;-58
2022/10/04 02:27:13;;;;;;;3.90;2.00;;;15.30;99.90;;;;;;5054566;28;20221;-58
2022/10/04 02:29:39;;;;;;;5.63;2.17;;;15.30;99.90;;;;;;5074732;28;20172;-58
2022/10/04 02:34:53;;;;;;;3.85;1.85;;;15.30;99.90;;;;;;5073434;28;20191;-58
2022/10/04 02:37:24;;;;;;;7.28;2.45;;;15.20;99.90;;;;;;5068870;28;20177;-58
2022/10/04 02:40:07;;;;;;;5.43;1.95;;;15.30;99.90;;;;;;5070340;28;20267;-58
2022/10/04 02:42:44;;;;;;;4.47;1.70;;;15.30;99.90;;;;;;5073742;28;20545;-58
2022/10/04 02:45:27;;;;;;;4.20;1.98;;;15.30;99.90;;;;;;5065768;28;20258;-58
2022/10/04 02:47:59;;;;;;;4.63;1.90;;;15.30;99.90;;;;;;5065135;28;20188;-58
2022/10/04 02:50:47;;;;;;;3.03;1.83;;;15.30;99.90;;;;;;5055216;28;20185;-58
2022/10/04 02:53:36;;;;;;;2.70;1.60;;;15.30;99.90;;;;;;5074525;28;20176;-57
2022/10/04 02:56:03;;;;;;;2.30;1.42;;;15.30;99.90;;;;;;5073415;28;20180;-58
2022/10/04 02:58:30;;;;;;;3.88;1.67;;;15.30;99.90;;;;;;5074358;28;20259;-57
2022/10/04 03:00:58;;;;;;;4.55;1.90;;;15.30;99.90;;;;;;5073962;28;20255;-57
2022/10/04 03:03:30;;;;;;;6.20;1.75;;;15.30;99.90;;;;;;5073636;28;20176;-57
2022/10/04 03:06:10;;;;;;;4.28;1.88;;;15.30;99.90;;;;;;5068669;28;20197;-61
2022/10/04 03:08:43;;;;;;;4.93;2.08;;;15.30;99.90;;;;;;5054391;28;20169;-57
2022/10/04 03:11:12;;;;;;;5.50;2.33;;;15.30;99.90;;;;;;5059447;28;20185;-57
2022/10/04 03:13:40;;;;;;;4.70;1.80;;;15.30;99.90;;;;;;5073878;28;20185;-57
2022/10/04 03:16:07;;;;;;;3.63;1.92;;;15.20;99.90;;;;;;5073285;28;20709;-57
2022/10/04 03:18:35;;;;;;;6.55;1.80;;;15.20;99.90;;;;;;5059051;28;20732;-58
2022/10/04 03:21:06;;;;;;;4.22;2.10;;;15.20;99.90;;;;;;5069455;28;20185;-58
2022/10/04 03:23:32;;;;;;;2.40;1.85;;;15.20;99.90;;;;;;5072148;28;20177;-58
2022/10/04 03:26:25;;;;;;;3.20;1.83;;;15.20;99.90;;;;;;5072653;28;20227;-59
2022/10/04 03:28:51;;;;;;;7.50;2.30;;;15.20;99.90;;;;;;5072778;28;20227;-59
2022/10/04 03:31:18;;;;;;;4.65;2.10;;;15.10;99.90;;;;;;5069259;28;20666;-60
2022/10/04 03:33:45;;;;;;;6.25;2.30;;;15.20;99.90;;;;;;5063891;28;20173;-59
2022/10/04 03:36:15;;;;;;;5.68;2.30;;;15.10;99.90;;;;;;5072841;28;20181;-59
2022/10/04 03:38:43;;;;;;;6.97;2.42;;;15.10;99.90;;;;;;5066221;28;20177;-59
2022/10/04 03:41:10;;;;;;;3.15;2.00;;;15.10;99.90;;;;;;5058244;28;20176;-59
2022/10/04 03:43:43;;;;;;;7.38;2.30;;;15.00;99.90;;;;;;5073348;28;20172;-59
2022/10/04 03:46:09;;;;;;;7.85;2.10;;;15.00;99.90;;;;;;5072975;28;20204;-59
2022/10/04 03:48:43;;;;;;;3.83;2.17;;;15.00;99.90;;;;;;5073169;28;20327;-59
2022/10/04 03:51:15;;;;;;;4.35;2.13;;;15.00;99.90;;;;;;5072898;28;20172;-59
2022/10/04 03:53:45;;;;;;;6.45;1.75;;;15.00;99.90;;;;;;5072992;28;20180;-59
2022/10/04 03:56:30;;;;;;;7.10;2.50;;;15.00;99.90;;;;;;5073154;28;20170;-59
2022/10/04 03:58:56;;;;;;;4.93;2.05;;;15.00;99.90;;;;;;5073455;28;20187;-60
2022/10/04 04:01:36;;;;;;;6.50;2.13;;;14.90;99.90;;;;;;5073078;28;20176;-59
2022/10/04 04:04:16;;;;;;;5.20;1.70;;;15.00;99.90;;;;;;5070938;28;20285;-59
2022/10/04 04:07:02;;;;;;;4.80;2.00;;;15.00;99.90;;;;;;5072981;28;20354;-59
2022/10/04 04:09:45;;;;;;;4.40;1.55;;;14.90;99.90;;;;;;5062402;28;20201;-59
2022/10/04 04:12:21;;;;;;;5.13;1.42;;;14.90;99.90;;;;;;5067159;28;20228;-59
2022/10/04 04:14:50;;;;;;;2.83;1.13;;;14.90;99.90;;;;;;5073186;28;20237;-62
2022/10/04 04:17:24;;;;;;;1.98;1.17;;;14.90;99.90;;;;;;5073028;28;20175;-59
2022/10/04 04:19:51;;;;;;;1.83;1.00;;;14.90;99.90;;;;;;5052958;28;20176;-60
2022/10/04 04:22:18;;;;;;;3.42;0.90;;;14.90;99.90;;;;;;5072448;28;20177;-59
2022/10/04 04:24:44;;;;;;;1.92;1.05;;;14.90;99.90;;;;;;5072612;28;20187;-59
2022/10/04 04:27:14;;;;;;;2.00;0.80;;;14.90;99.90;;;;;;5060838;28;20667;-59
2022/10/04 04:29:50;;;;;;;2.60;0.70;;;14.90;99.90;;;;;;5068241;28;20184;-58
2022/10/04 04:32:34;;;;;;;1.55;0.65;;;14.90;99.90;;;;;;5072302;28;20187;-59
2022/10/04 04:35:06;;;;;;;3.50;0.77;;;14.90;99.90;;;;;;5072456;28;20196;-59
2022/10/04 04:37:33;;;;;;;4.13;0.85;;;14.90;99.90;;;;;;5059585;28;20166;-58
2022/10/04 04:40:18;;;;;;;1.20;0.70;;;14.90;99.90;;;;;;5069856;28;20177;-58
2022/10/04 04:42:45;;;;;;;2.45;1.00;;;14.90;99.90;;;;;;5060581;28;20176;-58
2022/10/04 04:45:21;;;;;;;2.75;0.90;;;14.90;99.90;;;;;;5072170;28;20172;-59
2022/10/04 04:47:50;;;;;;;6.37;0.70;;;14.90;99.90;;;;;;5071887;28;20196;-58
2022/10/04 04:50:29;;;;;;;1.42;0.70;;;14.90;99.90;;;;;;5071525;28;20195;-58
2022/10/04 04:53:13;;;;;;;2.80;0.80;;;14.90;99.90;;;;;;5055455;28;20172;-58
2022/10/04 04:55:44;;;;;;;5.70;0.80;;;14.90;99.90;;;;;;5071841;28;20173;-58
2022/10/04 04:58:23;;;;;;;2.33;0.80;;;14.90;99.90;;;;;;5071857;28;20168;-58
2022/10/04 05:01:12;;;;;;;1.42;0.70;;;14.90;99.90;;;;;;5071769;28;20164;-58
2022/10/04 05:03:37;;;;;;;1.83;0.98;;;15.00;99.90;;;;;;5071720;28;20210;-58
2022/10/04 05:06:03;;;;;;;1.55;0.90;;;14.90;99.90;;;;;;5071492;28;20200;-58
2022/10/04 05:08:34;;;;;;;3.40;1.15;;;14.90;99.90;;;;;;5068233;28;20181;-59
2022/10/04 05:11:08;;;;;;;4.05;1.10;;;14.70;99.90;;;;;;5055975;28;20188;-59
2022/10/04 05:13:44;;;;;;;3.85;0.90;;;;;;;;;;5070704;28;20275;-59
2022/10/04 05:16:19;;;;;;;2.60;1.05;;;15.20;99.90;;;;;;5071025;28;20175;-59
2022/10/04 05:18:46;;;;;;;2.33;1.02;;;15.00;99.90;;;;;;5071199;28;20191;-59
2022/10/04 05:21:21;;;;;;;1.90;0.82;;;14.90;99.90;;;;;;5071047;28;20187;-59
2022/10/04 05:23:48;;;;;;;3.05;1.05;;;14.90;99.90;;;;;;5069754;28;20642;-59
2022/10/04 05:26:20;;;;;;;5.40;1.02;;;15.00;99.90;;;;;;5071235;28;20299;-59
2022/10/04 05:28:46;;;;;;;4.82;1.10;;;15.00;99.90;;;;;;5071357;28;20210;-59
2022/10/04 05:31:45;;;;;;;2.53;1.08;;;15.00;99.90;;;;;;5058396;28;20184;-59
2022/10/04 05:34:25;;;;;;;6.22;1.30;;;15.00;99.90;;;;;;5070168;28;20415;-59
2022/10/04 05:37:00;;;;;;;4.70;1.08;;;15.00;99.90;;;;;;5070604;28;20177;-59
2022/10/04 05:39:41;;;;;;;5.93;1.20;;;15.00;99.90;;;;;;5059188;28;20203;-59
2022/10/04 05:42:23;;;;;;;3.30;1.20;;;15.00;99.90;;;;;;5069665;28;20176;-59
2022/10/04 05:44:51;;;;;;;2.03;1.40;;;15.00;99.90;;;;;;5071027;28;20181;-59
2022/10/04 05:47:22;;;;;;;3.05;1.90;;;15.00;99.90;;;;;;5053542;28;20303;-58
2022/10/04 05:49:54;;;;;;;4.35;2.38;;;14.90;99.90;;;;;;5051010;28;20165;-59
2022/10/04 05:52:29;;;;;;;7.38;2.42;;;14.90;99.90;;;;;;5067461;28;20270;-58
2022/10/04 05:55:14;;;;;;;6.18;2.30;;;14.90;99.90;;;;;;5057008;28;20207;-58
2022/10/04 05:57:46;;;;;;;5.10;2.13;;;14.80;99.90;;;;;;5070357;28;20566;-59
2022/10/04 06:00:19;;;;;;;5.20;2.35;;;14.80;99.90;;;;;;5070104;28;20192;-58
2022/10/04 06:03:19;;;;;;;4.80;2.30;;;14.80;99.90;;;;;;5051032;28;20180;-58
2022/10/04 06:05:55;;;;;;;3.55;2.88;;;14.70;99.90;;;;;;5053063;28;20243;-58
2022/10/04 06:08:32;;;;;;;5.38;3.50;;;14.70;99.90;;;;;;5070146;28;20180;-58
2022/10/04 06:11:14;;;;;;;8.52;3.20;;;14.70;99.90;;;;;;5053485;28;20631;-59
2022/10/04 06:13:58;;;;;;;7.85;3.45;;;14.70;99.90;;;;;;5061476;28;20181;-59
2022/10/04 06:16:41;;;;;;;5.90;3.53;;;14.70;99.90;;;;;;5050860;28;20231;-58
2022/10/04 06:19:26;;;;;;;6.22;3.78;;;14.70;99.90;;;;;;5064854;28;20187;-58
2022/10/04 06:22:07;;;;;;;5.95;3.90;;;14.70;99.90;;;;;;5066561;28;20194;-58
2022/10/04 06:24:36;;;;;;;6.78;4.00;;;14.70;99.90;;;;;;5067263;28;20203;-58
2022/10/04 06:27:17;;;;;;;9.23;5.30;;;14.70;99.90;;;;;;5061938;28;20747;-58
2022/10/04 06:29:52;;;;;;;7.22;4.50;;;14.70;99.90;;;;;;5070756;28;20698;-59
2022/10/04 06:32:25;;;;;;;8.90;4.85;;;14.70;99.90;;;;;;5069142;28;20263;-59
2022/10/04 06:35:29;;;;;;;5.78;4.18;;;14.70;99.90;;;;;;5051137;28;20216;-59
2022/10/04 06:38:13;;;;;;;7.53;4.03;;;14.80;99.90;;;;;;5063734;28;20176;-58
2022/10/04 06:41:01;;;;;;;5.13;3.53;;;14.80;99.90;;;;;;5053101;28;20303;-58
2022/10/04 06:43:44;;;;;;;7.63;3.13;;;15.00;99.90;;;;;;5054336;28;20181;-58
2022/10/04 06:46:22;;;;;;;6.75;2.75;;;14.90;99.90;;;;;;5066509;28;20683;-59
2022/10/04 06:49:23;;;;;;;5.85;3.20;;;14.90;99.90;;;;;;5068069;28;20176;-59
2022/10/04 06:52:19;;;;;;;9.07;2.95;;;14.90;99.90;;;;;;5062253;28;20188;-58
2022/10/04 06:54:50;;;;;;;6.15;3.30;;;15.00;99.90;;;;;;5068879;28;20176;-60
2022/10/04 06:57:22;;;;;;;6.25;3.30;;;15.00;99.90;;;;;;5067398;28;20546;-60
2022/10/04 07:00:03;;;;;;;7.43;3.70;;;14.90;99.90;;;;;;5068990;28;20196;-60
2022/10/04 07:02:56;;;;;;;8.48;3.95;;;14.80;99.90;;;;;;5068516;28;20213;-60
2022/10/04 07:05:29;;;;;;;5.28;3.70;;;14.90;99.90;;;;;;5058358;28;20185;-61
2022/10/04 07:08:29;;;;;;;11.30;3.78;;;14.90;99.90;;;;;;5062826;28;20253;-60
2022/10/04 07:10:58;;;;;;;6.80;3.22;;;14.70;99.90;;;;;;5070021;28;20173;-60
2022/10/04 07:13:26;;;;;;;5.68;3.30;;;14.90;99.90;;;;;;5068665;28;20204;-61
2022/10/04 07:16:23;;;;;;;7.88;3.60;;;15.00;99.90;;;;;;5071692;28;20958;-61
2022/10/04 07:19:14;;;;;;;6.15;2.95;;;15.60;99.90;;;;;;5073449;28;20207;-61
2022/10/04 07:22:00;;;;;;;7.88;3.25;;;14.80;99.90;;;;;;5073683;28;20173;-61
2022/10/04 07:24:41;;;;;;;4.95;3.13;;;15.00;99.90;;;;;;5057528;28;20221;-60
2022/10/04 07:27:12;;;;;;;5.72;2.90;;;15.00;99.90;;;;;;5073262;28;20935;-61
2022/10/04 07:29:40;;;;;;;8.38;2.50;;;15.00;99.90;;;;;;5073453;28;20263;-60
2022/10/04 07:32:39;;;;;;;4.03;2.53;;;15.10;99.90;;;;;;5072928;28;20169;-60
2022/10/04 07:35:08;;;;;;;6.55;2.88;;;15.10;99.90;;;;;;5049022;28;20193;-60
2022/10/04 07:38:04;;;;;;;5.82;3.00;;;15.10;99.90;;;;;;5072311;28;20181;-60
2022/10/04 07:40:35;;;;;;;3.10;2.33;;;15.10;99.90;;;;;;5056466;28;20711;-58
2022/10/04 07:43:10;;;;;;;5.18;2.47;;;15.10;99.90;;;;;;5072328;28;20400;-60
2022/10/04 07:45:39;;;;;;;5.30;2.67;;;15.10;99.90;;;;;;5064367;28;20412;-60
2022/10/04 07:48:15;;;;;;;9.35;2.10;;;15.00;99.90;;;;;;5053426;28;20648;-60
2022/10/04 07:51:02;;;;;;;2.42;1.70;;;15.20;99.90;;;;;;5052958;28;20165;-60
2022/10/04 07:53:40;;;;;;;4.10;1.70;;;15.00;99.90;;;;;;5053131;28;20196;-60
2022/10/04 07:56:30;;;;;;;11.90;1.85;;;15.00;99.90;;;;;;5053215;28;20302;-60
2022/10/04 07:59:37;;;;;;;3.45;2.08;;;15.10;99.90;;;;;;5068602;28;20395;-60
2022/10/04 08:02:34;;;;;;;5.82;2.20;;;15.10;99.90;;;;;;5073395;28;20183;-60
2022/10/04 08:05:17;;;;;;;7.43;2.85;;;15.10;99.90;;;;;;5073075;28;20184;-60
2022/10/04 08:07:52;;;;;;;4.72;2.10;;;15.00;99.90;;;;;;5073061;28;20678;-60
2022/10/04 08:10:47;;;;;;;3.60;2.43;;;15.00;99.90;;;;;;5073092;28;20168;-61
2022/10/04 08:13:34;;;;;;;5.65;2.45;;;15.00;99.90;;;;;;5049651;28;20274;-56
2022/10/04 08:16:03;;;;;;;2.97;2.15;;;14.90;99.90;;;;;;5072970;28;20172;-57
2022/10/04 08:19:00;;;;;;;7.40;2.50;;;15.00;99.90;;;;;;5073018;28;20190;-57
2022/10/04 08:21:35;;;;;;;2.75;1.90;;;15.10;99.90;;;;;;5072631;28;20179;-57
2022/10/04 08:24:13;;;;;;;4.22;1.50;;;15.10;99.90;;;;;;5065400;28;20173;-57
2022/10/04 08:27:06;;;;;;;5.18;2.03;;;15.20;99.90;;;;;;5051919;28;20212;-58
2022/10/04 08:29:46;;;;;;;3.38;1.65;;;15.30;99.90;;;;;;5052748;28;20188;-57
2022/10/04 08:32:31;;;;;;;1.63;1.13;;;15.50;99.90;;;;;;5067461;28;20303;-58
2022/10/04 08:35:18;;;;;;;1.83;0.90;;;15.60;99.90;;;;;;5062645;28;20203;-57
2022/10/04 08:38:02;;;;;;;3.63;1.00;;;15.60;99.90;;;;;;5071869;28;20176;-57
2022/10/04 08:40:29;;;;;;;1.45;0.52;;;15.70;99.90;;;;;;5072128;28;20190;-61
2022/10/04 08:43:33;;;;;;;3.03;0.80;;;15.80;99.90;;;;;;5072321;28;20255;-60
2022/10/04 08:46:43;;;;;;;1.38;0.63;;;16.00;99.90;;;;;;5054523;28;20699;-60
2022/10/04 08:49:21;;;;;;;1.20;0.50;;;16.20;99.90;;;;;;5030035;28;20198;-59
2022/10/04 08:52:18;;;;;;;2.35;0.40;;;16.30;99.90;;;;;;5027395;28;20185;-60
2022/10/04 08:55:21;;;;;;;1.95;0.35;;;16.50;99.90;;;;;;5062636;28;20667;-60
2022/10/04 08:57:53;;;;;;;5.78;0.40;;;16.70;99.90;;;;;;5068472;28;20204;-60
2022/10/04 09:00:32;;;;;;;2.78;0.40;;;16.80;99.90;;;;;;5056673;28;20180;-60
2022/10/04 09:03:16;;;;;;;1.23;0.47;;;17.00;99.90;;;;;;5056844;28;20175;-60
2022/10/04 09:06:06;;;;;;;1.20;0.35;;;17.10;99.90;;;;;;5055467;28;20182;-60
2022/10/04 09:08:43;;;;;;;0.52;0.32;;;17.00;99.90;;;;;;5059037;28;20181;-60
2022/10/04 09:11:34;;;;;;;0.47;0.20;;;17.10;99.90;;;;;;5053146;28;20165;-59
2022/10/04 09:14:31;;;;;;;1.60;0.20;;;17.30;99.90;;;;;;5055456;28;20664;-59
2022/10/04 09:17:45;;;;;;;0.75;0.30;;;17.30;99.90;;;;;;5069799;28;20272;-59
2022/10/04 09:20:20;;;;;;;1.70;0.50;;;17.60;99.90;;;;;;5010258;28;20262;-60
2022/10/04 09:22:58;;;;;;;0.55;0.28;;;17.40;99.90;;;;;;5051428;28;20529;-60
2022/10/04 09:25:55;;;;;;;3.40;0.43;;;17.40;99.90;;;;;;5054309;28;20539;-60
2022/10/04 09:28:26;;;;;;;0.85;0.30;;;17.60;99.90;;;;;;5062689;28;20193;-60
2022/10/04 09:31:07;;;;;;;4.88;0.43;;;17.10;99.90;;;;;;5070905;28;20168;-60
2022/10/04 09:33:48;;;;;;;0.63;0.30;;;17.50;99.90;;;;;;5062283;28;20192;-60
2022/10/04 09:37:00;;;;;;;0.93;0.43;;;17.50;99.90;;;;;;5070241;28;20185;-60
2022/10/04 09:39:41;;;;;;;0.85;0.30;;;17.70;99.90;;;;;;5051939;28;20204;-60
2022/10/04 09:42:31;;;;;;;0.40;0.28;;;17.70;99.90;;;;;;5071312;28;20210;-56
2022/10/04 09:45:23;;;;;;;1.52;0.40;;;17.80;99.90;;;;;;5069808;28;20271;-55
2022/10/04 09:48:00;;;;;;;6.47;0.40;;;17.70;99.90;;;;;;5069252;28;20239;-57
2022/10/04 09:51:00;;;;;;;0.52;0.30;;;17.50;99.90;;;;;;5071246;28;20177;-57
2022/10/04 09:53:55;;;;;;;1.75;0.40;;;17.50;99.90;;;;;;5091221;28;20552;-57
2022/10/04 09:56:55;;;;;;;2.63;0.63;;;17.30;99.90;;;;;;5091394;28;20176;-55
2022/10/04 09:59:24;;;;;;;1.83;0.60;;;17.50;99.90;;;;;;5091377;28;20160;-56
2022/10/04 10:02:13;;;;;;;2.47;0.40;;;17.50;99.90;;;;;;5069317;28;20658;-56
2022/10/04 10:05:15;;;;;;;2.78;0.40;;;17.60;99.90;;;;;;5070879;28;20179;-56
2022/10/04 10:08:08;;;;;;;2.05;0.50;;;17.80;99.90;;;;;;5069330;28;20436;-56
2022/10/04 10:13:53;;;;;;;1.75;0.63;;;17.90;99.90;;;;;;5070771;28;20192;-56
2022/10/04 10:16:40;;;;;;;2.90;0.50;;;18.20;99.90;;;;;;5069970;28;20708;-57
2022/10/04 10:19:24;;;;;;;1.60;0.43;;;18.60;99.90;;;;;;5070852;28;20168;-56
2022/10/04 10:22:17;;;;;;;1.25;0.60;;;18.50;99.90;;;;;;5070352;28;20485;-57
2022/10/04 10:25:02;;;;;;;1.20;0.40;;;18.70;99.90;;;;;;5071050;28;20177;-57
2022/10/04 10:27:57;;;;;;;3.08;0.80;;;19.00;99.90;;;;;;5070434;28;20306;-57
2022/10/04 10:30:58;;;;;;;3.65;0.60;;;18.60;99.90;;;;;;5070819;28;20172;-56
2022/10/04 10:33:39;;;;;;;2.25;0.57;;;18.50;99.90;;;;;;5068219;28;20179;-57
2022/10/04 10:36:21;;;;;;;0.57;0.57;;;18.30;99.90;;;;;;5069381;28;20191;-57
2022/10/04 10:39:17;;;;;;;2.33;0.80;;;18.20;99.90;;;;;;5060526;28;20179;-56
2022/10/04 10:42:11;;;;;;;2.35;0.60;;;18.00;99.90;;;;;;5068160;28;20180;-57
2022/10/04 10:44:58;;;;;;;1.45;0.50;;;18.10;99.90;;;;;;5068652;28;20283;-57
2022/10/04 10:47:25;;;;;;;2.60;0.52;;;18.00;99.90;;;;;;5066702;28;20303;-57
2022/10/04 10:50:13;;;;;;;2.53;0.52;;;18.10;99.90;;;;;;5072071;28;20176;-57
2022/10/04 10:52:41;;;;;;;1.10;0.32;;;18.00;99.90;;;;;;5073151;28;20168;-57
2022/10/04 10:55:27;;;;;;;0.75;0.55;;;18.00;99.90;;;;;;5074553;28;20304;-57
2022/10/04 10:58:32;;;;;;;3.55;0.70;;;18.10;99.90;;;;;;5074253;28;20180;-57
2022/10/04 11:01:16;;;;;;;3.78;0.95;;;18.10;99.90;;;;;;5072835;28;20222;-57
2022/10/04 11:04:11;;;;;;;2.78;1.08;;;18.10;99.90;;;;;;5074508;28;20217;-57
2022/10/04 11:06:55;;;;;;;1.98;0.80;;;18.10;99.90;;;;;;5061492;28;20519;-57
2022/10/04 11:09:39;;;;;;;0.93;0.50;;;18.00;99.90;;;;;;5069687;28;20200;-57
2022/10/04 11:12:20;;;;;;;1.33;0.43;;;18.00;99.90;;;;;;5057849;28;20217;-57
2022/10/04 11:15:27;;;;;;;1.27;0.57;;;18.00;99.90;;;;;;5069462;28;20172;-57
2022/10/04 11:18:11;;;;;;;3.03;0.80;;;18.10;99.90;;;;;;5038997;28;20817;-57
2022/10/04 11:20:48;;;;;;;4.57;0.80;;;18.10;99.90;;;;;;5072732;28;20418;-57
2022/10/04 11:23:52;;;;;;;3.60;1.35;;;18.20;99.90;;;;;;5073212;28;20174;-57
2022/10/04 11:26:47;;;;;;;3.67;0.85;;;18.10;99.90;;;;;;4997786;28;20829;-57
2022/10/04 11:29:30;;;;;;;1.75;0.75;;;18.20;99.90;;;;;;5052731;28;20423;-57
2022/10/04 11:31:59;;;;;;;2.20;0.75;;;18.20;99.90;;;;;;5072862;28;20176;-57
2022/10/04 11:34:24;;;;;;;2.63;0.75;;;18.40;99.90;;;;;;5072183;28;20763;-57
2022/10/04 11:37:27;;;;;;;3.83;0.93;;;18.60;99.90;;;;;;5073788;28;20184;-57
2022/10/04 11:40:24;;;;;;;3.03;0.77;;;18.80;99.90;;;;;;5073684;28;20604;-56
2022/10/04 11:43:06;;;;;;;0.90;0.50;;;18.60;99.90;;;;;;5070582;28;20173;-56
2022/10/04 11:46:00;;;;;;;2.45;0.70;;;18.80;99.90;;;;;;5069328;28;20169;-57
2022/10/04 11:48:41;;;;;;;3.63;0.80;;;18.60;99.90;;;;;;5067888;28;20184;-57
2022/10/04 11:51:26;;;;;;;7.03;1.10;;;18.80;99.90;;;;;;5073501;28;20642;-56
2022/10/04 11:53:54;;;;;;;3.00;0.93;;;19.20;99.90;;;;;;5073504;28;20187;-56
2022/10/04 11:56:44;;;;;;;3.15;0.70;;;19.10;99.90;;;;;;5063114;28;20173;-57
2022/10/04 11:59:20;;;;;;;1.77;0.98;;;19.00;99.90;;;;;;5058913;28;20168;-57
2022/10/04 12:01:51;;;;;;;1.83;0.88;;;18.30;99.90;;;;;;5072357;28;20172;-57
2022/10/04 12:04:30;;;;;;;4.05;0.88;;;18.60;99.90;;;;;;5073219;28;20184;-57
2022/10/04 12:06:56;;;;;;;3.65;0.63;;;18.80;99.90;;;;;;5071632;28;20295;-56
2022/10/04 12:09:33;;;;;;;2.30;0.40;;;19.00;99.90;;;;;;5064186;28;20189;-57
2022/10/04 12:15:31;;;;;;;3.90;0.73;;;19.80;99.90;;;;;;5073037;28;20219;-57
2022/10/04 12:18:16;;;;;;;2.25;0.52;;;19.60;99.90;;;;;;5052753;28;20757;-56
2022/10/04 12:21:06;;;;;;;2.60;0.55;;;19.40;99.90;;;;;;5057690;28;20555;-57
2022/10/04 12:23:53;;;;;;;1.92;0.88;;;19.10;99.90;;;;;;5059311;28;20184;-56
2022/10/04 12:26:21;;;;;;;1.02;0.50;;;18.80;99.90;;;;;;5072350;28;20212;-57
2022/10/04 12:29:18;;;;;;;2.22;0.80;;;18.60;99.90;;;;;;5064792;28;20173;-56
2022/10/04 12:32:13;;;;;;;3.38;0.90;;;18.80;99.90;;;;;;5060069;28;20227;-56
2022/10/04 12:34:45;;;;;;;4.80;1.00;;;19.50;99.90;;;;;;5051862;28;20179;-59
2022/10/04 12:37:37;;;;;;;3.95;0.65;;;20.00;99.90;;;;;;5053338;28;20640;-57
2022/10/04 12:40:25;;;;;;;1.77;0.70;;;20.00;99.90;;;;;;5072430;28;20183;-56
2022/10/04 12:43:15;;;;;;;2.90;0.93;;;21.20;99.90;;;;;;5072592;28;20255;-56
2022/10/04 12:46:05;;;;;;;2.83;0.70;;;20.90;99.90;;;;;;5072458;28;20203;-56
2022/10/04 12:49:00;;;;;;;5.15;0.90;;;20.20;99.90;;;;;;5069556;28;20210;-56
2022/10/04 12:51:50;;;;;;;6.72;1.10;;;20.90;99.90;;;;;;5066274;28;20189;-56
2022/10/04 12:54:46;;;;;;;3.20;0.90;;;21.00;99.90;;;;;;5072065;28;20184;-57
2022/10/04 12:57:21;;;;;;;4.50;1.08;;;21.60;99.90;;;;;;5072249;28;20180;-57
2022/10/04 12:59:54;;;;;;;2.67;0.70;;;21.80;99.90;;;;;;5070594;28;20170;-57
2022/10/04 13:02:38;;;;;;;3.30;0.60;;;21.30;99.90;;;;;;5072046;28;20538;-57
2022/10/04 13:05:19;;;;;;;3.33;0.75;;;20.90;99.90;;;;;;5057590;28;20180;-57
2022/10/04 13:08:02;;;;;;;3.60;0.90;;;20.80;99.90;;;;;;5062302;28;20213;-57
2022/10/04 13:10:50;;;;;;;3.22;0.80;;;20.40;99.90;;;;;;5058002;28;20173;-57
2022/10/04 13:13:40;;;;;;;4.22;0.63;;;20.40;99.90;;;;;;5064094;28;20265;-57
2022/10/04 13:16:48;;;;;;;1.73;0.68;;;20.40;99.90;;;;;;5051793;28;20215;-57
2022/10/04 13:19:28;;;;;;;2.08;0.70;;;21.00;99.90;;;;;;5041352;28;20185;-57
2022/10/04 13:22:15;;;;;;;3.80;0.73;;;21.50;99.90;;;;;;5051203;28;20744;-57
2022/10/04 13:24:56;;;;;;;5.93;0.90;;;21.60;99.90;;;;;;5051081;28;20173;-58
2022/10/04 13:28:09;;;;;;;4.63;0.90;;;21.80;99.90;;;;;;5051502;28;20228;-58
2022/10/04 13:31:03;;;;;;;3.75;0.95;;;21.60;99.90;;;;;;5045646;28;20204;-57
2022/10/04 13:34:06;;;;;;;4.85;1.17;;;21.10;99.90;;;;;;5071418;28;20661;-57
2022/10/04 13:36:37;;;;;;;7.88;1.05;;;20.30;99.90;;;;;;5066421;28;20274;-57
2022/10/04 13:39:17;;;;;;;4.95;0.80;;;20.10;99.90;;;;;;5063381;28;20173;-58
2022/10/04 13:42:02;;;;;;;6.70;1.27;;;19.70;99.90;;;;;;5070881;28;20172;-58
2022/10/04 13:44:48;;;;;;;2.75;0.50;;;19.90;99.90;;;;;;5071631;28;20176;-58
2022/10/04 13:47:39;;;;;;;6.25;0.88;;;19.80;99.90;;;;;;5069827;28;20285;-57
2022/10/04 13:50:13;;;;;;;4.35;0.80;;;19.60;99.90;;;;;;5058716;28;20260;-58
2022/10/04 13:56:36;;;;;;;6.63;0.85;;;19.90;99.90;;;;;;5068134;28;20195;-57
2022/10/04 13:59:17;;;;;;;5.47;0.73;;;20.00;99.90;;;;;;5053526;28;20173;-57
2022/10/04 14:02:20;;;;;;;2.97;0.77;;;19.90;99.90;;;;;;5070833;28;20176;-58
2022/10/04 14:05:19;;;;;;;4.15;1.00;;;19.90;99.90;;;;;;5070163;28;20176;-57
2022/10/04 14:08:20;;;;;;;5.18;0.95;;;19.40;99.90;;;;;;5057648;28;20713;-57